Search for airport 
image banner adimage banner adimage banner ad
image banner ad

44CL - Balsdon

Located in Grimes, United States

ICAO - 44CL, IATA -

Data provided by Airmate  

General information

Coordinates: N39°2'52" W121°57'1"
Elevation is 35 feet MSL.
 
View others Airports in California

Operational data

Special qualification required
Current time UTC:
Current local time:
Weather at : KMYV - Yuba County ( 33 km )
METAR: KMYV 210953Z AUTO 15008KT 10SM CLR 21/09 A2978 RMK AO2 SLP087 T02110089
View NOTAMs / SUP AIP / TFR affecting this airport [VIEW]
Communications frequencies: [VIEW]

Runways:

RWY identifierQFULength (ft)Width (ft)SurfaceLDA (ft)
12232330ASPH
30232330ASPH

Airport contact information

Address: Grimes United States

Satellite view of 44CL